sensor_id;sensor_type;location;lat;lon;timestamp;P1;durP1;ratioP1;P2;durP2;ratioP2
18340;SDS011;9296;48.084;16.352;2022-12-11T00:01:07;42.97;;;17.17;;
18340;SDS011;9296;48.084;16.352;2022-12-11T00:03:36;45.40;;;19.30;;
18340;SDS011;9296;48.084;16.352;2022-12-11T00:09:08;39.23;;;17.20;;
18340;SDS011;9296;48.084;16.352;2022-12-11T00:11:35;42.43;;;17.63;;
18340;SDS011;9296;48.084;16.352;2022-12-11T00:14:02;43.97;;;17.27;;
18340;SDS011;9296;48.084;16.352;2022-12-11T00:16:30;37.37;;;16.47;;
18340;SDS011;9296;48.084;16.352;2022-12-11T00:25:06;38.77;;;16.37;;
18340;SDS011;9296;48.084;16.352;2022-12-11T00:27:33;41.50;;;16.50;;
18340;SDS011;9296;48.084;16.352;2022-12-11T00:30:01;39.10;;;16.83;;
18340;SDS011;9296;48.084;16.352;2022-12-11T00:32:28;40.80;;;16.03;;
18340;SDS011;9296;48.084;16.352;2022-12-11T00:34:55;37.57;;;16.07;;
18340;SDS011;9296;48.084;16.352;2022-12-11T00:37:23;37.57;;;16.90;;
18340;SDS011;9296;48.084;16.352;2022-12-11T00:39:50;42.40;;;17.03;;
18340;SDS011;9296;48.084;16.352;2022-12-11T00:42:19;39.37;;;16.60;;
18340;SDS011;9296;48.084;16.352;2022-12-11T00:44:46;37.17;;;16.83;;
18340;SDS011;9296;48.084;16.352;2022-12-11T00:47:14;38.37;;;16.13;;
18340;SDS011;9296;48.084;16.352;2022-12-11T00:49:42;33.97;;;15.70;;
18340;SDS011;9296;48.084;16.352;2022-12-11T00:52:09;36.27;;;15.93;;
18340;SDS011;9296;48.084;16.352;2022-12-11T00:54:36;32.67;;;14.80;;
18340;SDS011;9296;48.084;16.352;2022-12-11T00:57:03;35.83;;;15.90;;
18340;SDS011;9296;48.084;16.352;2022-12-11T00:59:32;32.17;;;15.70;;
18340;SDS011;9296;48.084;16.352;2022-12-11T01:01:59;34.17;;;15.63;;
18340;SDS011;9296;48.084;16.352;2022-12-11T01:07:37;32.53;;;14.27;;
18340;SDS011;9296;48.084;16.352;2022-12-11T01:10:04;29.33;;;14.30;;
18340;SDS011;9296;48.084;16.352;2022-12-11T01:12:49;32.73;;;14.47;;
18340;SDS011;9296;48.084;16.352;2022-12-11T01:15:18;31.50;;;14.20;;
18340;SDS011;9296;48.084;16.352;2022-12-11T01:17:46;33.03;;;14.13;;
18340;SDS011;9296;48.084;16.352;2022-12-11T01:20:14;33.03;;;15.03;;
18340;SDS011;9296;48.084;16.352;2022-12-11T01:22:41;34.63;;;15.07;;
18340;SDS011;9296;48.084;16.352;2022-12-11T01:25:08;32.63;;;13.97;;
18340;SDS011;9296;48.084;16.352;2022-12-11T01:27:36;31.23;;;14.37;;
18340;SDS011;9296;48.084;16.352;2022-12-11T01:30:04;35.87;;;15.80;;
18340;SDS011;9296;48.084;16.352;2022-12-11T01:32:34;36.93;;;15.87;;
18340;SDS011;9296;48.084;16.352;2022-12-11T01:35:01;35.97;;;16.27;;
18340;SDS011;9296;48.084;16.352;2022-12-11T01:37:28;35.10;;;15.90;;
18340;SDS011;9296;48.084;16.352;2022-12-11T01:39:56;36.70;;;16.07;;
18340;SDS011;9296;48.084;16.352;2022-12-11T01:42:23;36.67;;;16.70;;
18340;SDS011;9296;48.084;16.352;2022-12-11T01:47:54;40.50;;;16.80;;
18340;SDS011;9296;48.084;16.352;2022-12-11T01:53:37;36.57;;;15.70;;
18340;SDS011;9296;48.084;16.352;2022-12-11T01:56:04;35.67;;;15.13;;
18340;SDS011;9296;48.084;16.352;2022-12-11T01:58:34;33.97;;;15.97;;
18340;SDS011;9296;48.084;16.352;2022-12-11T02:01:03;34.83;;;16.20;;
18340;SDS011;9296;48.084;16.352;2022-12-11T02:03:32;31.73;;;14.77;;
18340;SDS011;9296;48.084;16.352;2022-12-11T02:09:03;36.30;;;15.40;;
18340;SDS011;9296;48.084;16.352;2022-12-11T02:11:34;33.03;;;14.77;;
18340;SDS011;9296;48.084;16.352;2022-12-11T02:14:03;33.40;;;14.80;;
18340;SDS011;9296;48.084;16.352;2022-12-11T02:16:32;32.67;;;15.07;;
18340;SDS011;9296;48.084;16.352;2022-12-11T02:19:06;31.27;;;14.90;;
18340;SDS011;9296;48.084;16.352;2022-12-11T02:24:41;29.67;;;13.77;;
18340;SDS011;9296;48.084;16.352;2022-12-11T02:27:15;32.07;;;14.50;;
18340;SDS011;9296;48.084;16.352;2022-12-11T02:29:49;30.00;;;14.10;;
18340;SDS011;9296;48.084;16.352;2022-12-11T02:32:18;32.00;;;14.17;;
18340;SDS011;9296;48.084;16.352;2022-12-11T02:37:52;29.60;;;14.07;;
18340;SDS011;9296;48.084;16.352;2022-12-11T02:40:23;29.70;;;13.97;;
18340;SDS011;9296;48.084;16.352;2022-12-11T02:42:52;26.97;;;12.80;;
18340;SDS011;9296;48.084;16.352;2022-12-11T02:45:21;27.80;;;13.67;;
18340;SDS011;9296;48.084;16.352;2022-12-11T02:47:50;27.27;;;12.50;;
18340;SDS011;9296;48.084;16.352;2022-12-11T02:56:11;23.07;;;12.10;;
18340;SDS011;9296;48.084;16.352;2022-12-11T02:58:42;28.17;;;12.07;;
18340;SDS011;9296;48.084;16.352;2022-12-11T03:01:11;24.97;;;11.80;;
18340;SDS011;9296;48.084;16.352;2022-12-11T03:03:39;24.33;;;11.10;;
18340;SDS011;9296;48.084;16.352;2022-12-11T03:08:53;22.13;;;10.60;;
18340;SDS011;9296;48.084;16.352;2022-12-11T03:11:21;22.90;;;10.23;;
18340;SDS011;9296;48.084;16.352;2022-12-11T03:13:48;23.03;;;10.30;;
18340;SDS011;9296;48.084;16.352;2022-12-11T03:16:19;16.93;;;9.30;;
18340;SDS011;9296;48.084;16.352;2022-12-11T03:18:51;19.33;;;9.00;;
18340;SDS011;9296;48.084;16.352;2022-12-11T03:24:25;18.23;;;8.93;;
18340;SDS011;9296;48.084;16.352;2022-12-11T03:26:55;16.43;;;8.33;;
18340;SDS011;9296;48.084;16.352;2022-12-11T03:29:25;17.50;;;8.53;;
18340;SDS011;9296;48.084;16.352;2022-12-11T03:31:56;17.20;;;8.57;;
18340;SDS011;9296;48.084;16.352;2022-12-11T03:34:37;14.10;;;7.90;;
18340;SDS011;9296;48.084;16.352;2022-12-11T03:37:06;15.27;;;7.23;;
18340;SDS011;9296;48.084;16.352;2022-12-11T03:39:35;13.73;;;7.30;;
18340;SDS011;9296;48.084;16.352;2022-12-11T03:42:04;14.70;;;7.27;;
18340;SDS011;9296;48.084;16.352;2022-12-11T03:44:32;15.87;;;7.70;;
18340;SDS011;9296;48.084;16.352;2022-12-11T03:47:04;14.30;;;7.40;;
18340;SDS011;9296;48.084;16.352;2022-12-11T03:52:30;15.50;;;8.10;;
18340;SDS011;9296;48.084;16.352;2022-12-11T03:54:58;15.00;;;7.60;;
18340;SDS011;9296;48.084;16.352;2022-12-11T03:57:28;15.50;;;8.13;;
18340;SDS011;9296;48.084;16.352;2022-12-11T03:59:55;16.60;;;8.23;;
18340;SDS011;9296;48.084;16.352;2022-12-11T04:02:24;14.20;;;7.97;;
18340;SDS011;9296;48.084;16.352;2022-12-11T04:04:51;15.17;;;7.80;;
18340;SDS011;9296;48.084;16.352;2022-12-11T04:07:18;16.13;;;7.90;;
18340;SDS011;9296;48.084;16.352;2022-12-11T04:09:46;17.50;;;8.83;;
18340;SDS011;9296;48.084;16.352;2022-12-11T04:12:13;16.90;;;8.87;;
18340;SDS011;9296;48.084;16.352;2022-12-11T04:14:40;16.60;;;8.90;;
18340;SDS011;9296;48.084;16.352;2022-12-11T04:17:26;19.33;;;9.23;;
18340;SDS011;9296;48.084;16.352;2022-12-11T04:20:11;20.27;;;9.80;;
18340;SDS011;9296;48.084;16.352;2022-12-11T04:22:56;21.33;;;10.30;;
18340;SDS011;9296;48.084;16.352;2022-12-11T04:25:41;19.90;;;10.10;;
18340;SDS011;9296;48.084;16.352;2022-12-11T04:28:08;19.23;;;9.40;;
18340;SDS011;9296;48.084;16.352;2022-12-11T04:30:35;18.37;;;9.47;;
18340;SDS011;9296;48.084;16.352;2022-12-11T04:33:04;18.13;;;9.83;;
18340;SDS011;9296;48.084;16.352;2022-12-11T04:35:31;17.93;;;10.23;;
18340;SDS011;9296;48.084;16.352;2022-12-11T04:37:58;22.20;;;10.73;;
18340;SDS011;9296;48.084;16.352;2022-12-11T04:40:26;19.97;;;9.57;;
18340;SDS011;9296;48.084;16.352;2022-12-11T04:42:53;17.90;;;9.47;;
18340;SDS011;9296;48.084;16.352;2022-12-11T04:45:20;18.43;;;9.13;;
18340;SDS011;9296;48.084;16.352;2022-12-11T04:47:47;20.27;;;9.83;;
18340;SDS011;9296;48.084;16.352;2022-12-11T04:50:16;18.07;;;9.63;;
18340;SDS011;9296;48.084;16.352;2022-12-11T04:52:44;16.73;;;8.77;;
18340;SDS011;9296;48.084;16.352;2022-12-11T04:55:11;17.17;;;8.70;;
18340;SDS011;9296;48.084;16.352;2022-12-11T04:57:38;17.53;;;8.93;;
18340;SDS011;9296;48.084;16.352;2022-12-11T05:00:07;16.23;;;8.37;;
18340;SDS011;9296;48.084;16.352;2022-12-11T05:02:35;17.67;;;9.03;;
18340;SDS011;9296;48.084;16.352;2022-12-11T05:07:49;15.13;;;7.93;;
18340;SDS011;9296;48.084;16.352;2022-12-11T05:10:16;16.17;;;7.90;;
18340;SDS011;9296;48.084;16.352;2022-12-11T05:12:43;16.13;;;8.40;;
18340;SDS011;9296;48.084;16.352;2022-12-11T05:15:10;16.43;;;8.03;;
18340;SDS011;9296;48.084;16.352;2022-12-11T05:17:38;14.40;;;7.97;;
18340;SDS011;9296;48.084;16.352;2022-12-11T05:20:05;17.10;;;8.67;;
18340;SDS011;9296;48.084;16.352;2022-12-11T05:22:33;17.83;;;8.77;;
18340;SDS011;9296;48.084;16.352;2022-12-11T05:25:02;17.37;;;8.70;;
18340;SDS011;9296;48.084;16.352;2022-12-11T05:27:29;16.53;;;8.43;;
18340;SDS011;9296;48.084;16.352;2022-12-11T05:29:57;16.30;;;8.73;;
18340;SDS011;9296;48.084;16.352;2022-12-11T05:32:24;16.97;;;8.60;;
18340;SDS011;9296;48.084;16.352;2022-12-11T05:41:00;18.80;;;9.10;;
18340;SDS011;9296;48.084;16.352;2022-12-11T05:43:29;19.03;;;9.03;;
18340;SDS011;9296;48.084;16.352;2022-12-11T05:46:03;19.00;;;9.50;;
18340;SDS011;9296;48.084;16.352;2022-12-11T05:48:31;17.67;;;9.27;;
18340;SDS011;9296;48.084;16.352;2022-12-11T05:50:58;18.50;;;9.10;;
18340;SDS011;9296;48.084;16.352;2022-12-11T05:53:25;18.07;;;8.60;;
18340;SDS011;9296;48.084;16.352;2022-12-11T05:55:53;19.00;;;9.50;;
18340;SDS011;9296;48.084;16.352;2022-12-11T05:58:22;21.50;;;10.23;;
18340;SDS011;9296;48.084;16.352;2022-12-11T06:00:49;18.20;;;9.83;;
18340;SDS011;9296;48.084;16.352;2022-12-11T06:03:16;22.53;;;10.33;;
18340;SDS011;9296;48.084;16.352;2022-12-11T06:11:41;21.80;;;11.20;;
18340;SDS011;9296;48.084;16.352;2022-12-11T06:14:10;22.13;;;10.53;;
18340;SDS011;9296;48.084;16.352;2022-12-11T06:16:38;24.57;;;11.17;;
18340;SDS011;9296;48.084;16.352;2022-12-11T06:19:05;21.93;;;11.20;;
18340;SDS011;9296;48.084;16.352;2022-12-11T06:24:35;22.23;;;10.77;;
18340;SDS011;9296;48.084;16.352;2022-12-11T06:27:03;20.50;;;10.73;;
18340;SDS011;9296;48.084;16.352;2022-12-11T06:29:32;22.67;;;11.73;;
18340;SDS011;9296;48.084;16.352;2022-12-11T06:31:59;21.70;;;11.27;;
18340;SDS011;9296;48.084;16.352;2022-12-11T06:34:27;21.67;;;10.80;;
18340;SDS011;9296;48.084;16.352;2022-12-11T06:36:54;21.50;;;11.17;;
18340;SDS011;9296;48.084;16.352;2022-12-11T06:39:22;21.43;;;10.83;;
18340;SDS011;9296;48.084;16.352;2022-12-11T06:41:49;24.13;;;11.73;;
18340;SDS011;9296;48.084;16.352;2022-12-11T06:44:16;20.07;;;10.63;;
18340;SDS011;9296;48.084;16.352;2022-12-11T06:46:45;19.63;;;10.40;;
18340;SDS011;9296;48.084;16.352;2022-12-11T06:49:12;20.97;;;11.13;;
18340;SDS011;9296;48.084;16.352;2022-12-11T06:54:42;21.93;;;10.97;;
18340;SDS011;9296;48.084;16.352;2022-12-11T06:57:10;19.60;;;10.17;;
18340;SDS011;9296;48.084;16.352;2022-12-11T06:59:37;19.37;;;10.67;;
18340;SDS011;9296;48.084;16.352;2022-12-11T07:02:06;18.53;;;9.83;;
18340;SDS011;9296;48.084;16.352;2022-12-11T07:04:34;17.67;;;9.60;;
18340;SDS011;9296;48.084;16.352;2022-12-11T07:10:05;16.60;;;9.37;;
18340;SDS011;9296;48.084;16.352;2022-12-11T07:12:32;20.57;;;10.20;;
18340;SDS011;9296;48.084;16.352;2022-12-11T07:14:59;20.20;;;10.17;;
18340;SDS011;9296;48.084;16.352;2022-12-11T07:17:28;18.37;;;9.73;;
18340;SDS011;9296;48.084;16.352;2022-12-11T07:19:56;19.03;;;9.83;;
18340;SDS011;9296;48.084;16.352;2022-12-11T07:25:27;18.23;;;9.57;;
18340;SDS011;9296;48.084;16.352;2022-12-11T07:27:54;16.07;;;8.63;;
18340;SDS011;9296;48.084;16.352;2022-12-11T07:30:22;16.17;;;8.60;;
18340;SDS011;9296;48.084;16.352;2022-12-11T07:32:50;16.70;;;8.80;;
18340;SDS011;9296;48.084;16.352;2022-12-11T07:35:18;18.20;;;8.93;;
18340;SDS011;9296;48.084;16.352;2022-12-11T07:37:45;14.97;;;8.63;;
18340;SDS011;9296;48.084;16.352;2022-12-11T07:40:12;15.77;;;8.97;;
18340;SDS011;9296;48.084;16.352;2022-12-11T07:42:39;14.27;;;8.43;;
18340;SDS011;9296;48.084;16.352;2022-12-11T07:45:07;16.50;;;7.97;;
18340;SDS011;9296;48.084;16.352;2022-12-11T07:47:34;15.80;;;8.20;;
18340;SDS011;9296;48.084;16.352;2022-12-11T07:50:03;15.53;;;8.07;;
18340;SDS011;9296;48.084;16.352;2022-12-11T07:52:48;14.83;;;8.40;;
18340;SDS011;9296;48.084;16.352;2022-12-11T07:55:16;16.67;;;8.30;;
18340;SDS011;9296;48.084;16.352;2022-12-11T07:57:43;13.47;;;7.87;;
18340;SDS011;9296;48.084;16.352;2022-12-11T08:00:11;15.60;;;8.10;;
18340;SDS011;9296;48.084;16.352;2022-12-11T08:02:38;14.47;;;7.67;;
18340;SDS011;9296;48.084;16.352;2022-12-11T08:05:07;13.83;;;8.17;;
18340;SDS011;9296;48.084;16.352;2022-12-11T08:07:53;16.30;;;8.47;;
18340;SDS011;9296;48.084;16.352;2022-12-11T08:10:20;18.73;;;8.60;;
18340;SDS011;9296;48.084;16.352;2022-12-11T08:12:47;15.47;;;8.30;;
18340;SDS011;9296;48.084;16.352;2022-12-11T08:15:15;13.53;;;7.80;;
18340;SDS011;9296;48.084;16.352;2022-12-11T08:17:42;14.30;;;7.63;;
18340;SDS011;9296;48.084;16.352;2022-12-11T08:20:11;13.93;;;7.17;;
18340;SDS011;9296;48.084;16.352;2022-12-11T08:22:55;15.13;;;7.90;;
18340;SDS011;9296;48.084;16.352;2022-12-11T08:25:23;14.50;;;7.80;;
18340;SDS011;9296;48.084;16.352;2022-12-11T08:27:50;13.53;;;8.23;;
18340;SDS011;9296;48.084;16.352;2022-12-11T08:30:17;14.00;;;7.80;;
18340;SDS011;9296;48.084;16.352;2022-12-11T08:32:44;14.90;;;8.37;;
18340;SDS011;9296;48.084;16.352;2022-12-11T08:35:13;13.53;;;7.37;;
18340;SDS011;9296;48.084;16.352;2022-12-11T08:40:44;13.80;;;7.97;;
18340;SDS011;9296;48.084;16.352;2022-12-11T08:43:11;15.27;;;8.17;;
18340;SDS011;9296;48.084;16.352;2022-12-11T08:45:39;13.63;;;8.20;;
18340;SDS011;9296;48.084;16.352;2022-12-11T08:48:06;14.03;;;8.50;;
18340;SDS011;9296;48.084;16.352;2022-12-11T08:50:39;14.10;;;7.82;;
18340;SDS011;9296;48.084;16.352;2022-12-11T08:53:07;13.20;;;8.05;;
18340;SDS011;9296;48.084;16.352;2022-12-11T08:55:34;13.27;;;8.48;;
18340;SDS011;9296;48.084;16.352;2022-12-11T08:58:01;13.25;;;8.68;;
18340;SDS011;9296;48.084;16.352;2022-12-11T09:00:28;12.43;;;8.40;;
18340;SDS011;9296;48.084;16.352;2022-12-11T09:02:55;13.68;;;8.38;;
18340;SDS011;9296;48.084;16.352;2022-12-11T09:05:23;12.77;;;8.40;;
18340;SDS011;9296;48.084;16.352;2022-12-11T09:08:10;13.88;;;8.45;;
18340;SDS011;9296;48.084;16.352;2022-12-11T09:10:37;13.00;;;8.93;;
18340;SDS011;9296;48.084;16.352;2022-12-11T09:13:05;12.48;;;8.23;;
18340;SDS011;9296;48.084;16.352;2022-12-11T09:15:32;11.95;;;8.30;;
18340;SDS011;9296;48.084;16.352;2022-12-11T09:18:00;11.45;;;8.13;;
18340;SDS011;9296;48.084;16.352;2022-12-11T09:20:27;12.50;;;8.55;;
18340;SDS011;9296;48.084;16.352;2022-12-11T09:22:55;14.90;;;8.93;;
18340;SDS011;9296;48.084;16.352;2022-12-11T09:25:23;10.95;;;8.10;;
18340;SDS011;9296;48.084;16.352;2022-12-11T09:27:50;12.40;;;8.57;;
18340;SDS011;9296;48.084;16.352;2022-12-11T09:30:18;10.95;;;8.30;;
18340;SDS011;9296;48.084;16.352;2022-12-11T09:32:45;10.05;;;7.72;;
18340;SDS011;9296;48.084;16.352;2022-12-11T09:35:13;11.48;;;8.00;;
18340;SDS011;9296;48.084;16.352;2022-12-11T09:37:40;10.65;;;7.93;;
18340;SDS011;9296;48.084;16.352;2022-12-11T09:40:08;11.98;;;8.05;;
18340;SDS011;9296;48.084;16.352;2022-12-11T09:42:41;12.15;;;7.93;;
18340;SDS011;9296;48.084;16.352;2022-12-11T09:45:12;11.80;;;8.15;;
18340;SDS011;9296;48.084;16.352;2022-12-11T09:47:42;10.85;;;8.15;;
18340;SDS011;9296;48.084;16.352;2022-12-11T09:50:12;9.82;;;7.32;;
18340;SDS011;9296;48.084;16.352;2022-12-11T09:52:43;12.02;;;8.10;;
18340;SDS011;9296;48.084;16.352;2022-12-11T09:55:15;11.52;;;7.80;;
18340;SDS011;9296;48.084;16.352;2022-12-11T09:57:47;9.73;;;7.20;;
18340;SDS011;9296;48.084;16.352;2022-12-11T10:00:19;11.38;;;8.05;;
18340;SDS011;9296;48.084;16.352;2022-12-11T10:02:54;12.70;;;8.10;;
18340;SDS011;9296;48.084;16.352;2022-12-11T10:05:26;11.15;;;7.53;;
18340;SDS011;9296;48.084;16.352;2022-12-11T10:08:15;9.98;;;7.10;;
18340;SDS011;9296;48.084;16.352;2022-12-11T10:10:45;10.40;;;7.20;;
18340;SDS011;9296;48.084;16.352;2022-12-11T10:13:20;10.18;;;7.53;;
18340;SDS011;9296;48.084;16.352;2022-12-11T10:15:50;11.85;;;7.30;;
18340;SDS011;9296;48.084;16.352;2022-12-11T10:18:20;9.85;;;6.88;;
18340;SDS011;9296;48.084;16.352;2022-12-11T10:20:49;10.48;;;7.32;;
18340;SDS011;9296;48.084;16.352;2022-12-11T10:23:17;10.43;;;7.65;;
18340;SDS011;9296;48.084;16.352;2022-12-11T10:25:45;10.40;;;6.93;;
18340;SDS011;9296;48.084;16.352;2022-12-11T10:28:17;10.73;;;7.20;;
18340;SDS011;9296;48.084;16.352;2022-12-11T10:30:47;11.35;;;7.30;;
18340;SDS011;9296;48.084;16.352;2022-12-11T10:33:17;9.15;;;6.78;;
18340;SDS011;9296;48.084;16.352;2022-12-11T10:35:52;9.90;;;6.88;;
18340;SDS011;9296;48.084;16.352;2022-12-11T10:38:23;10.85;;;7.85;;
18340;SDS011;9296;48.084;16.352;2022-12-11T10:40:53;9.90;;;6.70;;
18340;SDS011;9296;48.084;16.352;2022-12-11T10:43:31;10.82;;;7.45;;
18340;SDS011;9296;48.084;16.352;2022-12-11T10:45:59;9.57;;;6.68;;
18340;SDS011;9296;48.084;16.352;2022-12-11T10:48:26;10.55;;;6.28;;
18340;SDS011;9296;48.084;16.352;2022-12-11T10:57:01;8.85;;;6.07;;
18340;SDS011;9296;48.084;16.352;2022-12-11T10:59:32;8.82;;;5.72;;
18340;SDS011;9296;48.084;16.352;2022-12-11T11:01:59;9.95;;;5.65;;
18340;SDS011;9296;48.084;16.352;2022-12-11T11:04:29;9.48;;;6.10;;
18340;SDS011;9296;48.084;16.352;2022-12-11T11:10:14;9.32;;;6.18;;
18340;SDS011;9296;48.084;16.352;2022-12-11T11:12:42;10.40;;;5.78;;
18340;SDS011;9296;48.084;16.352;2022-12-11T11:15:12;8.95;;;5.80;;
18340;SDS011;9296;48.084;16.352;2022-12-11T11:17:41;9.52;;;5.85;;
18340;SDS011;9296;48.084;16.352;2022-12-11T11:20:11;8.20;;;5.45;;
18340;SDS011;9296;48.084;16.352;2022-12-11T11:22:41;8.90;;;5.85;;
18340;SDS011;9296;48.084;16.352;2022-12-11T11:25:14;13.15;;;6.13;;
18340;SDS011;9296;48.084;16.352;2022-12-11T11:27:43;10.67;;;6.70;;
18340;SDS011;9296;48.084;16.352;2022-12-11T11:30:17;9.70;;;6.20;;
18340;SDS011;9296;48.084;16.352;2022-12-11T11:32:45;10.53;;;5.67;;
18340;SDS011;9296;48.084;16.352;2022-12-11T11:35:17;9.50;;;5.00;;
18340;SDS011;9296;48.084;16.352;2022-12-11T11:37:45;8.97;;;5.60;;
18340;SDS011;9296;48.084;16.352;2022-12-11T11:40:14;8.40;;;5.33;;
18340;SDS011;9296;48.084;16.352;2022-12-11T11:42:43;11.03;;;6.20;;
18340;SDS011;9296;48.084;16.352;2022-12-11T11:45:13;11.87;;;6.10;;
18340;SDS011;9296;48.084;16.352;2022-12-11T11:47:44;10.03;;;6.00;;
18340;SDS011;9296;48.084;16.352;2022-12-11T11:50:15;9.43;;;5.53;;
18340;SDS011;9296;48.084;16.352;2022-12-11T11:55:48;10.23;;;6.00;;
18340;SDS011;9296;48.084;16.352;2022-12-11T11:58:19;10.43;;;5.57;;
18340;SDS011;9296;48.084;16.352;2022-12-11T12:00:48;8.00;;;5.43;;
18340;SDS011;9296;48.084;16.352;2022-12-11T12:03:18;11.07;;;5.67;;
18340;SDS011;9296;48.084;16.352;2022-12-11T12:05:48;8.27;;;4.87;;
18340;SDS011;9296;48.084;16.352;2022-12-11T12:08:20;8.23;;;5.23;;
18340;SDS011;9296;48.084;16.352;2022-12-11T12:10:52;8.23;;;5.00;;
18340;SDS011;9296;48.084;16.352;2022-12-11T12:13:27;8.73;;;4.90;;
18340;SDS011;9296;48.084;16.352;2022-12-11T12:15:57;8.70;;;5.27;;
18340;SDS011;9296;48.084;16.352;2022-12-11T12:18:30;8.67;;;5.43;;
18340;SDS011;9296;48.084;16.352;2022-12-11T12:21:04;8.13;;;4.97;;
18340;SDS011;9296;48.084;16.352;2022-12-11T12:23:43;9.47;;;5.40;;
18340;SDS011;9296;48.084;16.352;2022-12-11T12:26:15;10.63;;;5.47;;
18340;SDS011;9296;48.084;16.352;2022-12-11T12:28:48;7.87;;;4.97;;
18340;SDS011;9296;48.084;16.352;2022-12-11T12:31:28;9.90;;;5.20;;
18340;SDS011;9296;48.084;16.352;2022-12-11T12:34:01;7.70;;;4.90;;
18340;SDS011;9296;48.084;16.352;2022-12-11T12:39:20;8.83;;;4.97;;
18340;SDS011;9296;48.084;16.352;2022-12-11T12:41:51;7.93;;;4.37;;
18340;SDS011;9296;48.084;16.352;2022-12-11T12:44:21;9.50;;;5.10;;
18340;SDS011;9296;48.084;16.352;2022-12-11T12:46:51;9.40;;;5.10;;
18340;SDS011;9296;48.084;16.352;2022-12-11T12:49:26;7.73;;;4.67;;
18340;SDS011;9296;48.084;16.352;2022-12-11T12:51:54;8.57;;;4.67;;
18340;SDS011;9296;48.084;16.352;2022-12-11T12:54:22;8.03;;;4.77;;
18340;SDS011;9296;48.084;16.352;2022-12-11T12:56:50;7.93;;;4.93;;
18340;SDS011;9296;48.084;16.352;2022-12-11T12:59:18;8.33;;;4.70;;
18340;SDS011;9296;48.084;16.352;2022-12-11T13:01:46;7.43;;;4.37;;
18340;SDS011;9296;48.084;16.352;2022-12-11T13:04:32;8.33;;;4.60;;
18340;SDS011;9296;48.084;16.352;2022-12-11T13:10:04;8.37;;;5.00;;
18340;SDS011;9296;48.084;16.352;2022-12-11T13:12:38;11.67;;;6.83;;
18340;SDS011;9296;48.084;16.352;2022-12-11T13:17:48;15.07;;;9.07;;
18340;SDS011;9296;48.084;16.352;2022-12-11T13:20:18;17.63;;;9.60;;
18340;SDS011;9296;48.084;16.352;2022-12-11T13:22:51;19.47;;;10.50;;
18340;SDS011;9296;48.084;16.352;2022-12-11T13:25:21;17.93;;;10.63;;
18340;SDS011;9296;48.084;16.352;2022-12-11T13:27:49;17.17;;;10.13;;
18340;SDS011;9296;48.084;16.352;2022-12-11T13:30:21;17.37;;;10.13;;
18340;SDS011;9296;48.084;16.352;2022-12-11T13:32:51;19.73;;;10.30;;
18340;SDS011;9296;48.084;16.352;2022-12-11T13:35:21;17.47;;;9.73;;
18340;SDS011;9296;48.084;16.352;2022-12-11T13:37:49;19.17;;;10.27;;
18340;SDS011;9296;48.084;16.352;2022-12-11T13:40:17;18.00;;;10.23;;
18340;SDS011;9296;48.084;16.352;2022-12-11T13:42:47;18.20;;;10.00;;
18340;SDS011;9296;48.084;16.352;2022-12-11T13:45:17;18.47;;;10.00;;
18340;SDS011;9296;48.084;16.352;2022-12-11T13:47:45;18.07;;;9.97;;
18340;SDS011;9296;48.084;16.352;2022-12-11T13:50:14;16.90;;;10.03;;
18340;SDS011;9296;48.084;16.352;2022-12-11T13:55:56;18.50;;;10.10;;
18340;SDS011;9296;48.084;16.352;2022-12-11T13:58:23;17.50;;;9.83;;
18340;SDS011;9296;48.084;16.352;2022-12-11T14:00:52;16.07;;;9.43;;
18340;SDS011;9296;48.084;16.352;2022-12-11T14:03:20;18.20;;;9.77;;
18340;SDS011;9296;48.084;16.352;2022-12-11T14:05:48;16.70;;;9.03;;
18340;SDS011;9296;48.084;16.352;2022-12-11T14:14:26;16.83;;;9.40;;
18340;SDS011;9296;48.084;16.352;2022-12-11T14:16:54;17.20;;;9.20;;
18340;SDS011;9296;48.084;16.352;2022-12-11T14:19:22;15.97;;;9.37;;
18340;SDS011;9296;48.084;16.352;2022-12-11T14:24:54;17.93;;;9.77;;
18340;SDS011;9296;48.084;16.352;2022-12-11T14:27:22;19.37;;;10.03;;
18340;SDS011;9296;48.084;16.352;2022-12-11T14:29:51;17.40;;;10.10;;
18340;SDS011;9296;48.084;16.352;2022-12-11T14:32:23;19.60;;;10.43;;
18340;SDS011;9296;48.084;16.352;2022-12-11T14:34:50;20.37;;;10.43;;
18340;SDS011;9296;48.084;16.352;2022-12-11T14:43:26;19.67;;;10.17;;
18340;SDS011;9296;48.084;16.352;2022-12-11T14:45:58;17.10;;;9.43;;
18340;SDS011;9296;48.084;16.352;2022-12-11T14:48:26;16.53;;;9.90;;
18340;SDS011;9296;48.084;16.352;2022-12-11T14:50:56;18.20;;;10.00;;
18340;SDS011;9296;48.084;16.352;2022-12-11T14:56:28;17.87;;;9.63;;
18340;SDS011;9296;48.084;16.352;2022-12-11T14:58:57;21.40;;;10.73;;
18340;SDS011;9296;48.084;16.352;2022-12-11T15:01:28;20.73;;;10.70;;
18340;SDS011;9296;48.084;16.352;2022-12-11T15:04:04;18.70;;;9.67;;
18340;SDS011;9296;48.084;16.352;2022-12-11T15:06:32;18.73;;;9.70;;
18340;SDS011;9296;48.084;16.352;2022-12-11T15:09:19;18.30;;;9.73;;
18340;SDS011;9296;48.084;16.352;2022-12-11T15:11:47;18.23;;;10.10;;
18340;SDS011;9296;48.084;16.352;2022-12-11T15:14:15;16.77;;;9.27;;
18340;SDS011;9296;48.084;16.352;2022-12-11T15:16:45;19.23;;;10.23;;
18340;SDS011;9296;48.084;16.352;2022-12-11T15:19:15;18.97;;;9.63;;
18340;SDS011;9296;48.084;16.352;2022-12-11T15:21:44;17.97;;;9.43;;
18340;SDS011;9296;48.084;16.352;2022-12-11T15:24:20;17.60;;;9.50;;
18340;SDS011;9296;48.084;16.352;2022-12-11T15:26:48;17.57;;;9.70;;
18340;SDS011;9296;48.084;16.352;2022-12-11T15:29:22;18.33;;;9.27;;
18340;SDS011;9296;48.084;16.352;2022-12-11T15:31:59;18.07;;;9.60;;
18340;SDS011;9296;48.084;16.352;2022-12-11T15:34:30;17.00;;;8.97;;
18340;SDS011;9296;48.084;16.352;2022-12-11T15:36:57;17.47;;;9.70;;
18340;SDS011;9296;48.084;16.352;2022-12-11T15:42:29;16.43;;;9.17;;
18340;SDS011;9296;48.084;16.352;2022-12-11T15:44:57;15.57;;;8.73;;
18340;SDS011;9296;48.084;16.352;2022-12-11T15:47:27;13.73;;;7.83;;
18340;SDS011;9296;48.084;16.352;2022-12-11T15:49:56;14.03;;;7.17;;
18340;SDS011;9296;48.084;16.352;2022-12-11T15:52:24;13.70;;;7.50;;
18340;SDS011;9296;48.084;16.352;2022-12-11T15:54:51;13.73;;;7.30;;
18340;SDS011;9296;48.084;16.352;2022-12-11T15:57:20;14.30;;;7.87;;
18340;SDS011;9296;48.084;16.352;2022-12-11T15:59:48;13.33;;;7.53;;
18340;SDS011;9296;48.084;16.352;2022-12-11T16:02:16;12.40;;;7.27;;
18340;SDS011;9296;48.084;16.352;2022-12-11T16:04:45;13.00;;;7.50;;
18340;SDS011;9296;48.084;16.352;2022-12-11T16:13:19;12.33;;;7.30;;
18340;SDS011;9296;48.084;16.352;2022-12-11T16:15:47;13.53;;;7.67;;
18340;SDS011;9296;48.084;16.352;2022-12-11T16:18:15;12.73;;;7.20;;
18340;SDS011;9296;48.084;16.352;2022-12-11T16:20:44;13.57;;;7.53;;
18340;SDS011;9296;48.084;16.352;2022-12-11T16:23:12;12.77;;;7.47;;
18340;SDS011;9296;48.084;16.352;2022-12-11T16:25:41;13.50;;;7.90;;
18340;SDS011;9296;48.084;16.352;2022-12-11T16:28:09;14.53;;;7.80;;
18340;SDS011;9296;48.084;16.352;2022-12-11T16:30:37;12.97;;;7.60;;
18340;SDS011;9296;48.084;16.352;2022-12-11T16:33:04;13.60;;;7.40;;
18340;SDS011;9296;48.084;16.352;2022-12-11T16:35:32;13.17;;;7.30;;
18340;SDS011;9296;48.084;16.352;2022-12-11T16:38:19;12.70;;;6.97;;
18340;SDS011;9296;48.084;16.352;2022-12-11T16:40:47;12.50;;;7.30;;
18340;SDS011;9296;48.084;16.352;2022-12-11T16:43:14;11.50;;;6.93;;
18340;SDS011;9296;48.084;16.352;2022-12-11T16:45:41;12.43;;;7.30;;
18340;SDS011;9296;48.084;16.352;2022-12-11T16:48:09;12.73;;;7.00;;
18340;SDS011;9296;48.084;16.352;2022-12-11T16:50:38;11.77;;;6.53;;